METAR Data
IDs: Format: Raw Decoded Include TAF

Data at: 1915 UTC 15 Oct 2018

PHNL 151853Z 01007KT 10SM FEW023 SCT035 BKN050 26/21 A2996 RMK AO2 SLP144 VCSH NE T02610206
PHNL 151753Z 02003KT 10SM FEW025 SCT038 BKN046 24/21 A2995 RMK AO2 RAE08 SLP141 VCSH NE P0000 60000 T02390211 10239 20228 53020

PHNL 151725Z 1518/1624 35006KT P6SM VCSH FEW025 SCT030 BKN045
  FM152000 05011KT P6SM FEW030 SCT045
  FM160500 04007KT P6SM FEW025 SCT045
  FM162000 04011KT P6SM FEW030 FEW050


PHOG 151854Z 08010KT 10SM FEW025 SCT040 28/22 A2996 RMK AO2 SLP150 T02780222
PHOG 151754Z 05008KT 10SM FEW025 SCT040 27/22 A2994 RMK AO2 SLP143 T02670217 10267 20228 52016

PHOG 151725Z 1518/1618 05008KT P6SM FEW025 SCT035
  FM152000 04013KT P6SM FEW025 BKN050
  FM160000 04016KT P6SM VCSH SCT020 BKN035
  FM160500 05009KT P6SM FEW050 AMD LTD TO VIS AND WIND 1609/1616


PHKO 151853Z 21007KT 10SM SCT035 SCT055 SCT120 27/21 A2992 RMK AO2 SLP132 T02720211
PHKO 151753Z 00000KT 10SM FEW100 SCT150 SCT200 26/20 A2989 RMK AO2 SLP123 T02610200 10261 20222 53014

PHKO 151725Z 1518/1618 31006KT P6SM FEW050 SCT200
  FM152100 28009KT P6SM FEW030 BKN060
  FM160600 05008KT P6SM FEW030 SCT060


PHTO 151853Z 29004KT 10SM FEW042 OVC055 26/20 A2994 RMK AO2 SLP139 T02610200
PHTO 151753Z 28006KT 10SM OVC038 25/21 A2993 RMK AO2 SLP133 T02500211 10250 20228 53014

PHTO 151725Z 1518/1618 24005KT P6SM SCT025 BKN045
  FM152000 02008KT P6SM SCT025 SCT045
  FM160500 24005KT P6SM SCT020 BKN040


PHLI 151853Z 01005KT 10SM SCT026 BKN039 OVC047 23/20 A2999 RMK AO2 SLP154 T02330200
PHLI 151753Z 34006KT 10SM SCT028 OVC039 23/19 A2997 RMK AO2 RAE1655 SLP146 P0000 60012 T02280194 10228 20211 51016

PHLI 151856Z 1519/1618 04010KT P6SM FEW020 SCT030 BKN045
  FM152300 04011KT P6SM SCT025 BKN050